Terminal Aerodrome Forecast
Issued by NWS

Home | Current Version | Previous Version | Graphics & Text | Print | Product List | Glossary On
Versions: 1 2 3 4 5 6 7 8 9 10 11 12 13 14 15 16 17 18 19
445
FTUS41 KCLE 252350
TAFFDY
TAF
KFDY 252350Z 2600/2624 36008KT P6SM SCT060
     FM260200 32003KT P6SM SKC
     FM261500 28005KT P6SM SCT050=

USA.gov is the U.S. government's official web portal to all federal, state and local government web resources and services.